sensor_id;sensor_type;location;lat;lon;timestamp;P1;durP1;ratioP1;P2;durP2;ratioP2
51332;SDS011;37417;48.118;11.734;2022-07-01T00:00:59;3.20;;;1.95;;
51332;SDS011;37417;48.118;11.734;2022-07-01T00:03:45;3.55;;;1.60;;
51332;SDS011;37417;48.118;11.734;2022-07-01T00:06:37;1.50;;;1.40;;
51332;SDS011;37417;48.118;11.734;2022-07-01T00:09:23;2.75;;;1.88;;
51332;SDS011;37417;48.118;11.734;2022-07-01T00:12:09;2.03;;;1.77;;
51332;SDS011;37417;48.118;11.734;2022-07-01T00:14:54;6.55;;;2.25;;
51332;SDS011;37417;48.118;11.734;2022-07-01T00:17:40;4.57;;;2.40;;
51332;SDS011;37417;48.118;11.734;2022-07-01T00:20:26;3.67;;;1.98;;
51332;SDS011;37417;48.118;11.734;2022-07-01T00:23:12;5.28;;;2.08;;
51332;SDS011;37417;48.118;11.734;2022-07-01T00:25:59;6.72;;;2.45;;
51332;SDS011;37417;48.118;11.734;2022-07-01T00:28:45;2.92;;;2.30;;
51332;SDS011;37417;48.118;11.734;2022-07-01T00:31:30;6.70;;;2.75;;
51332;SDS011;37417;48.118;11.734;2022-07-01T00:34:16;2.60;;;2.38;;
51332;SDS011;37417;48.118;11.734;2022-07-01T00:37:02;8.02;;;2.70;;
51332;SDS011;37417;48.118;11.734;2022-07-01T00:39:47;4.22;;;2.50;;
51332;SDS011;37417;48.118;11.734;2022-07-01T00:42:33;4.22;;;2.38;;
51332;SDS011;37417;48.118;11.734;2022-07-01T00:45:23;4.45;;;2.67;;
51332;SDS011;37417;48.118;11.734;2022-07-01T00:48:09;7.35;;;2.60;;
51332;SDS011;37417;48.118;11.734;2022-07-01T00:50:55;2.70;;;2.40;;
51332;SDS011;37417;48.118;11.734;2022-07-01T00:53:42;5.40;;;2.50;;
51332;SDS011;37417;48.118;11.734;2022-07-01T00:56:28;5.07;;;2.50;;
51332;SDS011;37417;48.118;11.734;2022-07-01T00:59:14;2.35;;;2.15;;
51332;SDS011;37417;48.118;11.734;2022-07-01T01:02:00;1.55;;;1.45;;
51332;SDS011;37417;48.118;11.734;2022-07-01T01:04:46;3.88;;;2.20;;
51332;SDS011;37417;48.118;11.734;2022-07-01T01:07:33;3.35;;;1.90;;
51332;SDS011;37417;48.118;11.734;2022-07-01T01:10:19;2.20;;;1.52;;
51332;SDS011;37417;48.118;11.734;2022-07-01T01:13:05;10.27;;;1.65;;
51332;SDS011;37417;48.118;11.734;2022-07-01T01:15:51;6.35;;;1.45;;
51332;SDS011;37417;48.118;11.734;2022-07-01T01:18:37;4.10;;;1.88;;
51332;SDS011;37417;48.118;11.734;2022-07-01T01:21:22;2.65;;;1.20;;
51332;SDS011;37417;48.118;11.734;2022-07-01T01:24:08;6.45;;;1.10;;
51332;SDS011;37417;48.118;11.734;2022-07-01T01:26:54;1.95;;;1.40;;
51332;SDS011;37417;48.118;11.734;2022-07-01T01:29:40;0.88;;;0.60;;
51332;SDS011;37417;48.118;11.734;2022-07-01T01:32:25;1.13;;;0.65;;
51332;SDS011;37417;48.118;11.734;2022-07-01T01:35:11;0.80;;;0.50;;
51332;SDS011;37417;48.118;11.734;2022-07-01T01:37:58;0.70;;;0.47;;
51332;SDS011;37417;48.118;11.734;2022-07-01T01:40:44;2.80;;;0.70;;
51332;SDS011;37417;48.118;11.734;2022-07-01T01:43:29;0.70;;;0.43;;
51332;SDS011;37417;48.118;11.734;2022-07-01T01:46:15;0.40;;;0.40;;
51332;SDS011;37417;48.118;11.734;2022-07-01T01:49:02;1.50;;;0.60;;
51332;SDS011;37417;48.118;11.734;2022-07-01T01:51:48;6.60;;;0.65;;
51332;SDS011;37417;48.118;11.734;2022-07-01T01:54:33;0.68;;;0.60;;
51332;SDS011;37417;48.118;11.734;2022-07-01T01:57:21;0.65;;;0.43;;
51332;SDS011;37417;48.118;11.734;2022-07-01T02:00:07;1.10;;;0.60;;
51332;SDS011;37417;48.118;11.734;2022-07-01T02:02:54;0.50;;;0.40;;
51332;SDS011;37417;48.118;11.734;2022-07-01T02:05:39;0.40;;;0.40;;
51332;SDS011;37417;48.118;11.734;2022-07-01T02:08:25;2.72;;;0.45;;
51332;SDS011;37417;48.118;11.734;2022-07-01T02:11:11;0.35;;;0.30;;
51332;SDS011;37417;48.118;11.734;2022-07-01T02:13:57;1.25;;;0.50;;
51332;SDS011;37417;48.118;11.734;2022-07-01T02:16:42;0.30;;;0.30;;
51332;SDS011;37417;48.118;11.734;2022-07-01T02:19:28;0.10;;;0.10;;
51332;SDS011;37417;48.118;11.734;2022-07-01T02:22:14;0.28;;;0.28;;
51332;SDS011;37417;48.118;11.734;2022-07-01T02:24:59;0.40;;;0.40;;
51332;SDS011;37417;48.118;11.734;2022-07-01T02:27:45;0.20;;;0.20;;
51332;SDS011;37417;48.118;11.734;2022-07-01T02:30:31;0.30;;;0.20;;
51332;SDS011;37417;48.118;11.734;2022-07-01T02:33:20;0.52;;;0.50;;
51332;SDS011;37417;48.118;11.734;2022-07-01T02:36:07;1.40;;;0.43;;
51332;SDS011;37417;48.118;11.734;2022-07-01T02:38:52;0.35;;;0.35;;
51332;SDS011;37417;48.118;11.734;2022-07-01T02:41:38;0.40;;;0.30;;
51332;SDS011;37417;48.118;11.734;2022-07-01T02:44:42;0.30;;;0.30;;
51332;SDS011;37417;48.118;11.734;2022-07-01T02:47:34;0.73;;;0.52;;
51332;SDS011;37417;48.118;11.734;2022-07-01T02:50:20;0.68;;;0.35;;
51332;SDS011;37417;48.118;11.734;2022-07-01T02:53:06;1.50;;;0.40;;
51332;SDS011;37417;48.118;11.734;2022-07-01T02:55:52;0.50;;;0.40;;
51332;SDS011;37417;48.118;11.734;2022-07-01T02:58:37;0.35;;;0.30;;
51332;SDS011;37417;48.118;11.734;2022-07-01T03:01:23;0.30;;;0.30;;
51332;SDS011;37417;48.118;11.734;2022-07-01T03:04:09;2.30;;;0.52;;
51332;SDS011;37417;48.118;11.734;2022-07-01T03:06:54;1.42;;;0.40;;
51332;SDS011;37417;48.118;11.734;2022-07-01T03:09:40;0.52;;;0.50;;
51332;SDS011;37417;48.118;11.734;2022-07-01T03:12:27;0.30;;;0.30;;
51332;SDS011;37417;48.118;11.734;2022-07-01T03:15:14;0.75;;;0.45;;
51332;SDS011;37417;48.118;11.734;2022-07-01T03:18:01;2.38;;;0.50;;
51332;SDS011;37417;48.118;11.734;2022-07-01T03:20:46;0.25;;;0.25;;
51332;SDS011;37417;48.118;11.734;2022-07-01T03:23:34;0.45;;;0.45;;
51332;SDS011;37417;48.118;11.734;2022-07-01T03:26:20;0.85;;;0.47;;
51332;SDS011;37417;48.118;11.734;2022-07-01T03:29:06;1.27;;;0.52;;
51332;SDS011;37417;48.118;11.734;2022-07-01T03:31:52;0.85;;;0.30;;
51332;SDS011;37417;48.118;11.734;2022-07-01T03:34:38;3.20;;;0.50;;
51332;SDS011;37417;48.118;11.734;2022-07-01T03:37:24;2.17;;;0.60;;
51332;SDS011;37417;48.118;11.734;2022-07-01T03:40:10;1.55;;;0.40;;
51332;SDS011;37417;48.118;11.734;2022-07-01T03:42:56;0.60;;;0.60;;
51332;SDS011;37417;48.118;11.734;2022-07-01T03:45:42;0.60;;;0.45;;
51332;SDS011;37417;48.118;11.734;2022-07-01T03:48:28;1.10;;;0.57;;
51332;SDS011;37417;48.118;11.734;2022-07-01T03:51:13;0.30;;;0.30;;
51332;SDS011;37417;48.118;11.734;2022-07-01T03:54:00;1.70;;;0.40;;
51332;SDS011;37417;48.118;11.734;2022-07-01T03:57:05;0.22;;;0.22;;
51332;SDS011;37417;48.118;11.734;2022-07-01T03:59:53;0.75;;;0.40;;
51332;SDS011;37417;48.118;11.734;2022-07-01T04:02:39;1.08;;;0.60;;
51332;SDS011;37417;48.118;11.734;2022-07-01T04:05:24;0.65;;;0.45;;
51332;SDS011;37417;48.118;11.734;2022-07-01T04:08:10;0.80;;;0.40;;
51332;SDS011;37417;48.118;11.734;2022-07-01T04:10:57;1.77;;;0.60;;
51332;SDS011;37417;48.118;11.734;2022-07-01T04:13:42;0.60;;;0.60;;
51332;SDS011;37417;48.118;11.734;2022-07-01T04:16:31;0.95;;;0.45;;
51332;SDS011;37417;48.118;11.734;2022-07-01T04:19:17;0.73;;;0.40;;
51332;SDS011;37417;48.118;11.734;2022-07-01T04:22:03;1.35;;;0.50;;
51332;SDS011;37417;48.118;11.734;2022-07-01T04:25:08;1.33;;;0.50;;
51332;SDS011;37417;48.118;11.734;2022-07-01T04:27:54;0.55;;;0.55;;
51332;SDS011;37417;48.118;11.734;2022-07-01T04:30:39;1.00;;;0.50;;
51332;SDS011;37417;48.118;11.734;2022-07-01T04:33:25;0.60;;;0.50;;
51332;SDS011;37417;48.118;11.734;2022-07-01T04:36:11;0.47;;;0.30;;
51332;SDS011;37417;48.118;11.734;2022-07-01T04:38:57;0.82;;;0.30;;
51332;SDS011;37417;48.118;11.734;2022-07-01T04:41:43;0.80;;;0.63;;
51332;SDS011;37417;48.118;11.734;2022-07-01T04:44:47;0.50;;;0.30;;
51332;SDS011;37417;48.118;11.734;2022-07-01T04:47:32;0.57;;;0.22;;
51332;SDS011;37417;48.118;11.734;2022-07-01T04:50:18;2.45;;;0.90;;
51332;SDS011;37417;48.118;11.734;2022-07-01T04:53:04;0.52;;;0.40;;
51332;SDS011;37417;48.118;11.734;2022-07-01T04:55:49;4.15;;;0.55;;
51332;SDS011;37417;48.118;11.734;2022-07-01T04:58:35;0.93;;;0.60;;
51332;SDS011;37417;48.118;11.734;2022-07-01T05:01:21;1.00;;;0.55;;
51332;SDS011;37417;48.118;11.734;2022-07-01T05:04:07;2.10;;;0.50;;
51332;SDS011;37417;48.118;11.734;2022-07-01T05:06:53;3.30;;;0.47;;
51332;SDS011;37417;48.118;11.734;2022-07-01T05:09:39;2.50;;;0.45;;
51332;SDS011;37417;48.118;11.734;2022-07-01T05:12:24;0.68;;;0.40;;
51332;SDS011;37417;48.118;11.734;2022-07-01T05:15:10;0.40;;;0.40;;
51332;SDS011;37417;48.118;11.734;2022-07-01T05:17:56;0.40;;;0.38;;
51332;SDS011;37417;48.118;11.734;2022-07-01T05:21:00;0.50;;;0.43;;
51332;SDS011;37417;48.118;11.734;2022-07-01T05:24:04;0.70;;;0.50;;
51332;SDS011;37417;48.118;11.734;2022-07-01T05:26:51;0.47;;;0.38;;
51332;SDS011;37417;48.118;11.734;2022-07-01T05:29:36;5.93;;;0.50;;
51332;SDS011;37417;48.118;11.734;2022-07-01T05:32:22;0.50;;;0.40;;
51332;SDS011;37417;48.118;11.734;2022-07-01T05:35:08;0.40;;;0.30;;
51332;SDS011;37417;48.118;11.734;2022-07-01T05:37:53;0.88;;;0.40;;
51332;SDS011;37417;48.118;11.734;2022-07-01T05:40:39;0.40;;;0.38;;
51332;SDS011;37417;48.118;11.734;2022-07-01T05:43:25;0.77;;;0.47;;
51332;SDS011;37417;48.118;11.734;2022-07-01T05:46:11;1.60;;;0.50;;
51332;SDS011;37417;48.118;11.734;2022-07-01T05:48:56;0.40;;;0.40;;
51332;SDS011;37417;48.118;11.734;2022-07-01T05:51:42;0.40;;;0.30;;
51332;SDS011;37417;48.118;11.734;2022-07-01T05:54:28;0.98;;;0.55;;
51332;SDS011;37417;48.118;11.734;2022-07-01T05:57:13;1.25;;;0.40;;
51332;SDS011;37417;48.118;11.734;2022-07-01T05:59:59;0.57;;;0.38;;
51332;SDS011;37417;48.118;11.734;2022-07-01T06:02:45;0.50;;;0.40;;
51332;SDS011;37417;48.118;11.734;2022-07-01T06:05:31;4.57;;;0.65;;
51332;SDS011;37417;48.118;11.734;2022-07-01T06:08:17;0.73;;;0.40;;
51332;SDS011;37417;48.118;11.734;2022-07-01T06:11:02;1.70;;;0.70;;
51332;SDS011;37417;48.118;11.734;2022-07-01T06:13:48;1.20;;;0.57;;
51332;SDS011;37417;48.118;11.734;2022-07-01T06:16:34;0.65;;;0.50;;
51332;SDS011;37417;48.118;11.734;2022-07-01T06:19:20;1.00;;;0.50;;
51332;SDS011;37417;48.118;11.734;2022-07-01T06:22:06;1.80;;;0.80;;
51332;SDS011;37417;48.118;11.734;2022-07-01T06:24:52;3.10;;;0.60;;
51332;SDS011;37417;48.118;11.734;2022-07-01T06:27:40;2.95;;;0.50;;
51332;SDS011;37417;48.118;11.734;2022-07-01T06:30:29;3.08;;;0.80;;
51332;SDS011;37417;48.118;11.734;2022-07-01T06:33:15;2.58;;;0.52;;
51332;SDS011;37417;48.118;11.734;2022-07-01T06:36:01;0.88;;;0.30;;
51332;SDS011;37417;48.118;11.734;2022-07-01T06:38:47;1.35;;;0.50;;
51332;SDS011;37417;48.118;11.734;2022-07-01T06:41:32;0.65;;;0.40;;
51332;SDS011;37417;48.118;11.734;2022-07-01T06:44:18;1.33;;;0.50;;
51332;SDS011;37417;48.118;11.734;2022-07-01T06:47:04;3.22;;;0.40;;
51332;SDS011;37417;48.118;11.734;2022-07-01T06:49:50;1.02;;;0.45;;
51332;SDS011;37417;48.118;11.734;2022-07-01T06:52:36;0.45;;;0.30;;
51332;SDS011;37417;48.118;11.734;2022-07-01T06:55:21;0.90;;;0.50;;
51332;SDS011;37417;48.118;11.734;2022-07-01T06:58:07;0.30;;;0.20;;
51332;SDS011;37417;48.118;11.734;2022-07-01T07:00:54;0.40;;;0.40;;
51332;SDS011;37417;48.118;11.734;2022-07-01T07:03:40;1.08;;;0.35;;
51332;SDS011;37417;48.118;11.734;2022-07-01T07:06:26;2.35;;;0.47;;
51332;SDS011;37417;48.118;11.734;2022-07-01T07:09:12;0.43;;;0.40;;
51332;SDS011;37417;48.118;11.734;2022-07-01T07:11:57;0.77;;;0.45;;
51332;SDS011;37417;48.118;11.734;2022-07-01T07:14:43;0.93;;;0.57;;
51332;SDS011;37417;48.118;11.734;2022-07-01T07:17:29;2.00;;;0.43;;
51332;SDS011;37417;48.118;11.734;2022-07-01T07:20:14;1.98;;;0.40;;
51332;SDS011;37417;48.118;11.734;2022-07-01T07:23:00;0.35;;;0.30;;
51332;SDS011;37417;48.118;11.734;2022-07-01T07:25:46;1.35;;;0.50;;
51332;SDS011;37417;48.118;11.734;2022-07-01T07:28:31;1.58;;;0.60;;
51332;SDS011;37417;48.118;11.734;2022-07-01T07:31:17;0.35;;;0.35;;
51332;SDS011;37417;48.118;11.734;2022-07-01T07:34:03;0.88;;;0.50;;
51332;SDS011;37417;48.118;11.734;2022-07-01T07:36:48;0.50;;;0.45;;
51332;SDS011;37417;48.118;11.734;2022-07-01T07:39:34;0.32;;;0.32;;
51332;SDS011;37417;48.118;11.734;2022-07-01T07:42:20;0.88;;;0.30;;
51332;SDS011;37417;48.118;11.734;2022-07-01T07:45:06;2.25;;;0.68;;
51332;SDS011;37417;48.118;11.734;2022-07-01T07:47:56;0.95;;;0.70;;
51332;SDS011;37417;48.118;11.734;2022-07-01T07:50:42;2.15;;;0.50;;
51332;SDS011;37417;48.118;11.734;2022-07-01T07:53:28;0.57;;;0.50;;
51332;SDS011;37417;48.118;11.734;2022-07-01T07:56:13;0.40;;;0.40;;
51332;SDS011;37417;48.118;11.734;2022-07-01T07:59:02;0.80;;;0.47;;
51332;SDS011;37417;48.118;11.734;2022-07-01T08:01:48;2.03;;;0.47;;
51332;SDS011;37417;48.118;11.734;2022-07-01T08:04:33;0.90;;;0.60;;
51332;SDS011;37417;48.118;11.734;2022-07-01T08:07:19;0.75;;;0.55;;
51332;SDS011;37417;48.118;11.734;2022-07-01T08:10:06;4.50;;;0.68;;
51332;SDS011;37417;48.118;11.734;2022-07-01T08:12:53;2.25;;;0.55;;
51332;SDS011;37417;48.118;11.734;2022-07-01T08:15:38;0.60;;;0.50;;
51332;SDS011;37417;48.118;11.734;2022-07-01T08:18:25;1.58;;;0.90;;
51332;SDS011;37417;48.118;11.734;2022-07-01T08:21:11;2.05;;;0.63;;
51332;SDS011;37417;48.118;11.734;2022-07-01T08:23:56;1.58;;;0.80;;
51332;SDS011;37417;48.118;11.734;2022-07-01T08:26:42;4.32;;;1.10;;
51332;SDS011;37417;48.118;11.734;2022-07-01T08:29:27;1.83;;;1.08;;
51332;SDS011;37417;48.118;11.734;2022-07-01T08:32:13;2.78;;;1.13;;
51332;SDS011;37417;48.118;11.734;2022-07-01T08:34:59;0.73;;;0.70;;
51332;SDS011;37417;48.118;11.734;2022-07-01T08:37:46;1.20;;;1.10;;
51332;SDS011;37417;48.118;11.734;2022-07-01T08:40:32;4.32;;;0.93;;
51332;SDS011;37417;48.118;11.734;2022-07-01T08:43:18;2.53;;;0.47;;
51332;SDS011;37417;48.118;11.734;2022-07-01T08:46:03;2.60;;;0.35;;
51332;SDS011;37417;48.118;11.734;2022-07-01T08:48:49;0.40;;;0.40;;
51332;SDS011;37417;48.118;11.734;2022-07-01T08:51:35;0.63;;;0.45;;
51332;SDS011;37417;48.118;11.734;2022-07-01T08:54:20;1.48;;;0.43;;
51332;SDS011;37417;48.118;11.734;2022-07-01T08:57:06;1.70;;;0.98;;
51332;SDS011;37417;48.118;11.734;2022-07-01T09:00:06;0.73;;;0.73;;
51332;SDS011;37417;48.118;11.734;2022-07-01T09:03:00;2.22;;;0.80;;
51332;SDS011;37417;48.118;11.734;2022-07-01T09:05:48;1.10;;;0.75;;
51332;SDS011;37417;48.118;11.734;2022-07-01T09:08:35;2.17;;;1.10;;
51332;SDS011;37417;48.118;11.734;2022-07-01T09:11:22;7.15;;;0.93;;
51332;SDS011;37417;48.118;11.734;2022-07-01T09:14:10;1.67;;;1.02;;
51332;SDS011;37417;48.118;11.734;2022-07-01T09:16:58;0.73;;;0.73;;
51332;SDS011;37417;48.118;11.734;2022-07-01T09:19:48;1.30;;;1.08;;
51332;SDS011;37417;48.118;11.734;2022-07-01T09:22:35;0.93;;;0.75;;
51332;SDS011;37417;48.118;11.734;2022-07-01T09:25:25;2.42;;;0.75;;
51332;SDS011;37417;48.118;11.734;2022-07-01T09:28:18;0.50;;;0.50;;
51332;SDS011;37417;48.118;11.734;2022-07-01T09:31:05;2.30;;;0.50;;
51332;SDS011;37417;48.118;11.734;2022-07-01T09:34:07;1.08;;;0.70;;
51332;SDS011;37417;48.118;11.734;2022-07-01T09:36:55;0.40;;;0.30;;
51332;SDS011;37417;48.118;11.734;2022-07-01T09:39:45;2.50;;;0.60;;
51332;SDS011;37417;48.118;11.734;2022-07-01T09:42:44;0.38;;;0.38;;
51332;SDS011;37417;48.118;11.734;2022-07-01T09:45:34;2.53;;;0.50;;
51332;SDS011;37417;48.118;11.734;2022-07-01T09:48:20;0.40;;;0.40;;
51332;SDS011;37417;48.118;11.734;2022-07-01T09:51:07;1.63;;;0.52;;
51332;SDS011;37417;48.118;11.734;2022-07-01T09:53:54;1.13;;;0.50;;
51332;SDS011;37417;48.118;11.734;2022-07-01T09:56:42;2.92;;;0.70;;
51332;SDS011;37417;48.118;11.734;2022-07-01T09:59:27;0.47;;;0.47;;
51332;SDS011;37417;48.118;11.734;2022-07-01T10:02:13;1.48;;;0.77;;
51332;SDS011;37417;48.118;11.734;2022-07-01T10:05:06;1.02;;;0.70;;
51332;SDS011;37417;48.118;11.734;2022-07-01T10:14:23;0.45;;;0.45;;
51332;SDS011;37417;48.118;11.734;2022-07-01T10:17:25;0.98;;;0.80;;
51332;SDS011;37417;48.118;11.734;2022-07-01T10:20:14;0.60;;;0.60;;
51332;SDS011;37417;48.118;11.734;2022-07-01T10:23:05;0.20;;;0.20;;
51332;SDS011;37417;48.118;11.734;2022-07-01T10:25:52;0.57;;;0.57;;
51332;SDS011;37417;48.118;11.734;2022-07-01T10:31:34;0.30;;;0.30;;
51332;SDS011;37417;48.118;11.734;2022-07-01T10:34:22;0.28;;;0.28;;
51332;SDS011;37417;48.118;11.734;2022-07-01T10:37:10;1.33;;;0.40;;
51332;SDS011;37417;48.118;11.734;2022-07-01T10:39:57;0.40;;;0.40;;
51332;SDS011;37417;48.118;11.734;2022-07-01T10:42:58;3.13;;;0.50;;
51332;SDS011;37417;48.118;11.734;2022-07-01T10:45:44;0.50;;;0.50;;
51332;SDS011;37417;48.118;11.734;2022-07-01T10:48:31;2.83;;;0.50;;
51332;SDS011;37417;48.118;11.734;2022-07-01T10:51:40;0.43;;;0.43;;
51332;SDS011;37417;48.118;11.734;2022-07-01T10:57:28;1.88;;;0.60;;
51332;SDS011;37417;48.118;11.734;2022-07-01T11:06:02;0.40;;;0.40;;
51332;SDS011;37417;48.118;11.734;2022-07-01T11:08:48;0.80;;;0.60;;
51332;SDS011;37417;48.118;11.734;2022-07-01T11:11:35;0.45;;;0.45;;
51332;SDS011;37417;48.118;11.734;2022-07-01T11:14:20;2.72;;;0.70;;
51332;SDS011;37417;48.118;11.734;2022-07-01T11:17:06;0.47;;;0.47;;
51332;SDS011;37417;48.118;11.734;2022-07-01T11:19:54;1.77;;;0.70;;
51332;SDS011;37417;48.118;11.734;2022-07-01T11:22:44;2.53;;;0.73;;
51332;SDS011;37417;48.118;11.734;2022-07-01T11:25:30;1.52;;;0.93;;
51332;SDS011;37417;48.118;11.734;2022-07-01T11:28:16;0.60;;;0.60;;
51332;SDS011;37417;48.118;11.734;2022-07-01T11:31:02;0.75;;;0.63;;
51332;SDS011;37417;48.118;11.734;2022-07-01T11:33:50;3.45;;;0.90;;
51332;SDS011;37417;48.118;11.734;2022-07-01T11:36:36;1.02;;;0.70;;
51332;SDS011;37417;48.118;11.734;2022-07-01T11:39:46;2.40;;;0.60;;
51332;SDS011;37417;48.118;11.734;2022-07-01T11:42:33;0.60;;;0.50;;
51332;SDS011;37417;48.118;11.734;2022-07-01T11:45:22;2.22;;;0.60;;
51332;SDS011;37417;48.118;11.734;2022-07-01T11:48:09;1.92;;;0.68;;
51332;SDS011;37417;48.118;11.734;2022-07-01T11:50:55;0.50;;;0.40;;
51332;SDS011;37417;48.118;11.734;2022-07-01T11:53:42;0.52;;;0.52;;
51332;SDS011;37417;48.118;11.734;2022-07-01T11:56:33;3.67;;;1.17;;
51332;SDS011;37417;48.118;11.734;2022-07-01T11:59:21;0.60;;;0.60;;
51332;SDS011;37417;48.118;11.734;2022-07-01T12:02:07;1.20;;;1.00;;
51332;SDS011;37417;48.118;11.734;2022-07-01T12:04:56;0.70;;;0.70;;
51332;SDS011;37417;48.118;11.734;2022-07-01T12:07:45;1.23;;;0.70;;
51332;SDS011;37417;48.118;11.734;2022-07-01T12:10:31;3.55;;;0.93;;
51332;SDS011;37417;48.118;11.734;2022-07-01T12:13:21;0.98;;;0.70;;
51332;SDS011;37417;48.118;11.734;2022-07-01T12:16:08;0.68;;;0.50;;
51332;SDS011;37417;48.118;11.734;2022-07-01T12:18:56;1.35;;;0.80;;
51332;SDS011;37417;48.118;11.734;2022-07-01T12:21:47;0.98;;;0.88;;
51332;SDS011;37417;48.118;11.734;2022-07-01T12:24:34;0.70;;;0.70;;
51332;SDS011;37417;48.118;11.734;2022-07-01T12:27:20;1.17;;;0.95;;
51332;SDS011;37417;48.118;11.734;2022-07-01T12:30:07;2.90;;;1.27;;
51332;SDS011;37417;48.118;11.734;2022-07-01T12:32:54;2.17;;;1.30;;
51332;SDS011;37417;48.118;11.734;2022-07-01T12:35:40;1.33;;;1.20;;
51332;SDS011;37417;48.118;11.734;2022-07-01T12:38:27;1.00;;;0.90;;
51332;SDS011;37417;48.118;11.734;2022-07-01T12:41:27;1.13;;;1.08;;
51332;SDS011;37417;48.118;11.734;2022-07-01T12:44:20;3.65;;;1.15;;
51332;SDS011;37417;48.118;11.734;2022-07-01T12:47:17;1.77;;;1.52;;
51332;SDS011;37417;48.118;11.734;2022-07-01T12:50:10;1.58;;;1.08;;
51332;SDS011;37417;48.118;11.734;2022-07-01T12:55:57;1.38;;;1.23;;
51332;SDS011;37417;48.118;11.734;2022-07-01T12:58:43;5.82;;;1.67;;
51332;SDS011;37417;48.118;11.734;2022-07-01T13:01:29;1.63;;;1.52;;
51332;SDS011;37417;48.118;11.734;2022-07-01T13:04:22;2.13;;;1.60;;
51332;SDS011;37417;48.118;11.734;2022-07-01T13:07:14;1.90;;;1.70;;
51332;SDS011;37417;48.118;11.734;2022-07-01T13:10:00;2.55;;;1.70;;
51332;SDS011;37417;48.118;11.734;2022-07-01T13:12:46;3.35;;;1.98;;
51332;SDS011;37417;48.118;11.734;2022-07-01T13:15:32;2.88;;;2.17;;
51332;SDS011;37417;48.118;11.734;2022-07-01T13:18:19;5.25;;;2.17;;
51332;SDS011;37417;48.118;11.734;2022-07-01T13:21:05;4.43;;;2.40;;
51332;SDS011;37417;48.118;11.734;2022-07-01T13:23:50;2.75;;;2.38;;
51332;SDS011;37417;48.118;11.734;2022-07-01T13:26:38;5.90;;;2.30;;
51332;SDS011;37417;48.118;11.734;2022-07-01T13:29:24;2.40;;;2.20;;
51332;SDS011;37417;48.118;11.734;2022-07-01T13:32:10;2.85;;;2.17;;
51332;SDS011;37417;48.118;11.734;2022-07-01T13:34:56;2.72;;;2.53;;
51332;SDS011;37417;48.118;11.734;2022-07-01T13:37:42;3.05;;;2.38;;
51332;SDS011;37417;48.118;11.734;2022-07-01T13:40:28;1.70;;;1.60;;
51332;SDS011;37417;48.118;11.734;2022-07-01T13:43:13;2.08;;;1.70;;
51332;SDS011;37417;48.118;11.734;2022-07-01T13:46:01;1.92;;;1.80;;
51332;SDS011;37417;48.118;11.734;2022-07-01T13:48:48;1.77;;;1.67;;
51332;SDS011;37417;48.118;11.734;2022-07-01T13:51:34;1.83;;;1.73;;
51332;SDS011;37417;48.118;11.734;2022-07-01T13:54:20;1.77;;;1.67;;
51332;SDS011;37417;48.118;11.734;2022-07-01T13:57:05;3.97;;;1.88;;
51332;SDS011;37417;48.118;11.734;2022-07-01T13:59:52;2.95;;;1.20;;
51332;SDS011;37417;48.118;11.734;2022-07-01T14:02:38;4.07;;;1.20;;
51332;SDS011;37417;48.118;11.734;2022-07-01T14:05:23;1.50;;;1.40;;
51332;SDS011;37417;48.118;11.734;2022-07-01T14:08:09;2.30;;;1.77;;
51332;SDS011;37417;48.118;11.734;2022-07-01T14:10:55;2.17;;;1.67;;
51332;SDS011;37417;48.118;11.734;2022-07-01T14:13:40;2.15;;;1.95;;
51332;SDS011;37417;48.118;11.734;2022-07-01T14:16:26;1.85;;;1.75;;
51332;SDS011;37417;48.118;11.734;2022-07-01T14:19:14;1.95;;;1.75;;
51332;SDS011;37417;48.118;11.734;2022-07-01T14:22:00;4.32;;;2.20;;
51332;SDS011;37417;48.118;11.734;2022-07-01T14:24:46;3.65;;;2.10;;
51332;SDS011;37417;48.118;11.734;2022-07-01T14:27:32;1.90;;;1.80;;
51332;SDS011;37417;48.118;11.734;2022-07-01T14:30:17;1.75;;;1.65;;
51332;SDS011;37417;48.118;11.734;2022-07-01T14:33:03;2.20;;;2.00;;
51332;SDS011;37417;48.118;11.734;2022-07-01T14:35:49;3.47;;;2.15;;
51332;SDS011;37417;48.118;11.734;2022-07-01T14:38:36;2.33;;;2.13;;
51332;SDS011;37417;48.118;11.734;2022-07-01T14:41:22;3.45;;;1.80;;
51332;SDS011;37417;48.118;11.734;2022-07-01T14:44:08;1.88;;;1.70;;
51332;SDS011;37417;48.118;11.734;2022-07-01T14:46:53;2.70;;;1.95;;
51332;SDS011;37417;48.118;11.734;2022-07-01T14:49:39;2.70;;;1.98;;
51332;SDS011;37417;48.118;11.734;2022-07-01T14:52:25;2.83;;;1.75;;
51332;SDS011;37417;48.118;11.734;2022-07-01T14:55:11;2.85;;;2.03;;
51332;SDS011;37417;48.118;11.734;2022-07-01T14:57:57;2.53;;;1.67;;
51332;SDS011;37417;48.118;11.734;2022-07-01T15:00:43;2.70;;;1.60;;
51332;SDS011;37417;48.118;11.734;2022-07-01T15:03:30;1.92;;;1.65;;
51332;SDS011;37417;48.118;11.734;2022-07-01T15:06:16;1.85;;;1.70;;
51332;SDS011;37417;48.118;11.734;2022-07-01T15:09:02;1.38;;;1.15;;
51332;SDS011;37417;48.118;11.734;2022-07-01T15:11:48;1.20;;;1.10;;
51332;SDS011;37417;48.118;11.734;2022-07-01T15:14:34;2.30;;;2.10;;
51332;SDS011;37417;48.118;11.734;2022-07-01T15:17:20;1.60;;;1.50;;
51332;SDS011;37417;48.118;11.734;2022-07-01T15:20:06;1.92;;;1.70;;
51332;SDS011;37417;48.118;11.734;2022-07-01T15:22:52;2.92;;;2.13;;
51332;SDS011;37417;48.118;11.734;2022-07-01T15:25:37;2.63;;;1.92;;
51332;SDS011;37417;48.118;11.734;2022-07-01T15:28:23;3.17;;;2.13;;
51332;SDS011;37417;48.118;11.734;2022-07-01T15:31:09;2.33;;;2.00;;
51332;SDS011;37417;48.118;11.734;2022-07-01T15:33:55;2.20;;;1.50;;
51332;SDS011;37417;48.118;11.734;2022-07-01T15:36:41;1.73;;;1.63;;
51332;SDS011;37417;48.118;11.734;2022-07-01T15:39:27;2.63;;;1.15;;
51332;SDS011;37417;48.118;11.734;2022-07-01T15:42:17;1.98;;;1.77;;
51332;SDS011;37417;48.118;11.734;2022-07-01T15:45:03;1.55;;;1.45;;
51332;SDS011;37417;48.118;11.734;2022-07-01T15:47:50;2.17;;;1.70;;
51332;SDS011;37417;48.118;11.734;2022-07-01T15:50:51;2.40;;;1.77;;
51332;SDS011;37417;48.118;11.734;2022-07-01T15:53:37;1.30;;;1.13;;
51332;SDS011;37417;48.118;11.734;2022-07-01T15:56:23;1.98;;;1.50;;
51332;SDS011;37417;48.118;11.734;2022-07-01T15:59:09;1.67;;;1.20;;
51332;SDS011;37417;48.118;11.734;2022-07-01T16:01:55;1.67;;;0.90;;
51332;SDS011;37417;48.118;11.734;2022-07-01T16:04:41;0.98;;;0.98;;
51332;SDS011;37417;48.118;11.734;2022-07-01T16:07:31;1.33;;;0.70;;
51332;SDS011;37417;48.118;11.734;2022-07-01T16:10:25;1.13;;;0.70;;
51332;SDS011;37417;48.118;11.734;2022-07-01T16:13:16;1.15;;;0.88;;
51332;SDS011;37417;48.118;11.734;2022-07-01T16:16:04;1.58;;;0.52;;
51332;SDS011;37417;48.118;11.734;2022-07-01T16:18:51;0.77;;;0.70;;
51332;SDS011;37417;48.118;11.734;2022-07-01T16:21:38;0.57;;;0.50;;
51332;SDS011;37417;48.118;11.734;2022-07-01T16:24:27;0.70;;;0.50;;
51332;SDS011;37417;48.118;11.734;2022-07-01T16:27:12;1.45;;;0.63;;
51332;SDS011;37417;48.118;11.734;2022-07-01T16:29:58;1.63;;;0.73;;
51332;SDS011;37417;48.118;11.734;2022-07-01T16:32:47;0.93;;;0.60;;
51332;SDS011;37417;48.118;11.734;2022-07-01T16:36:10;0.75;;;0.60;;
51332;SDS011;37417;48.118;11.734;2022-07-01T16:38:54;2.80;;;0.70;;
51332;SDS011;37417;48.118;11.734;2022-07-01T16:44:59;0.68;;;0.55;;
51332;SDS011;37417;48.118;11.734;2022-07-01T16:47:47;1.50;;;0.50;;
51332;SDS011;37417;48.118;11.734;2022-07-01T16:50:38;0.40;;;0.38;;
51332;SDS011;37417;48.118;11.734;2022-07-01T16:56:23;2.03;;;0.60;;
51332;SDS011;37417;48.118;11.734;2022-07-01T16:59:11;0.68;;;0.30;;